Time;durP1;ratioP1;P1;durP2;ratioP2;P2;SDS_P1;SDS_P2;PMS_P1;PMS_P2;Temp;Humidity;BMP_temperature;BMP_pressure;BME280_temperature;BME280_humidity;BME280_pressure;Samples;Min_cycle;Max_cycle;Signal;HPM_P1;HPM_P2
2023/11/02 00:00:35;;;;;;;1999.90;999.90;;;10.10;99.90;;;;;;5005601;28;20454;-69
2023/11/02 00:03:05;;;;;;;1999.90;999.90;;;10.10;99.90;;;;;;5028913;28;20693;-69
2023/11/02 00:06:15;;;;;;;1999.90;999.90;;;10.20;99.90;;;;;;5031379;28;20048;-82
2023/11/02 00:08:41;;;;;;;1999.90;999.90;;;10.20;99.90;;;;;;5031387;28;20794;-70
2023/11/02 00:11:45;;;;;;;1999.90;999.90;;;10.20;99.90;;;;;;5031777;28;20440;-70
2023/11/02 00:14:11;;;;;;;1999.90;999.90;;;10.20;99.90;;;;;;5030600;28;20467;-70
2023/11/02 00:16:37;;;;;;;1999.90;999.90;;;10.20;99.90;;;;;;5030174;28;20124;-70
2023/11/02 00:19:04;;;;;;;1999.90;999.90;;;10.20;99.90;;;;;;5032224;28;20037;-70
2023/11/02 00:21:32;;;;;;;1999.90;999.90;;;10.20;99.90;;;;;;5032514;28;20035;-77
2023/11/02 00:23:58;;;;;;;1999.90;999.90;;;10.30;99.90;;;;;;5029553;28;20104;-70
2023/11/02 00:26:25;;;;;;;1999.90;999.90;;;10.30;99.90;;;;;;5033339;28;20029;-68
2023/11/02 00:28:51;;;;;;;1999.90;999.90;;;10.30;99.90;;;;;;5028630;28;20028;-69
2023/11/02 00:31:17;;;;;;;1999.90;999.90;;;10.30;99.90;;;;;;5032244;28;20030;-69
2023/11/02 00:33:43;;;;;;;1999.90;999.90;;;10.30;99.90;;;;;;5022350;28;20069;-69
2023/11/02 00:36:11;;;;;;;1999.90;999.90;;;10.30;99.90;;;;;;5022763;28;20033;-69
2023/11/02 00:38:36;;;;;;;1999.90;999.90;;;10.30;99.90;;;;;;5029359;28;20116;-73
2023/11/02 00:41:03;;;;;;;1999.90;999.90;;;10.30;99.90;;;;;;5031631;28;20374;-69
2023/11/02 00:43:29;;;;;;;1999.90;999.90;;;10.30;99.90;;;;;;5025358;28;20029;-70
2023/11/02 00:45:55;;;;;;;1999.90;999.90;;;10.30;99.90;;;;;;5029897;28;20060;-70
2023/11/02 00:48:29;;;;;;;1999.90;999.90;;;10.30;99.90;;;;;;5034322;28;20053;-70
2023/11/02 00:50:58;;;;;;;1999.90;999.90;;;10.40;99.90;;;;;;5047348;28;20048;-69
2023/11/02 00:53:24;;;;;;;1999.90;999.90;;;10.40;99.90;;;;;;5044725;28;20032;-69
2023/11/02 00:55:49;;;;;;;1999.90;999.90;;;10.40;99.90;;;;;;5041004;28;20028;-69
2023/11/02 00:58:19;;;;;;;1999.90;999.90;;;10.40;99.90;;;;;;5044174;28;20412;-69
2023/11/02 01:00:54;;;;;;;1999.90;999.90;;;10.40;99.90;;;;;;5037873;28;20028;-70
2023/11/02 01:03:21;;;;;;;1999.90;999.90;;;10.40;99.90;;;;;;5032711;28;20053;-70
2023/11/02 01:05:47;;;;;;;1999.90;999.90;;;10.40;99.90;;;;;;5034861;28;20030;-70
2023/11/02 01:08:14;;;;;;;1999.90;999.90;;;10.50;99.90;;;;;;5040595;28;20117;-70
2023/11/02 01:10:41;;;;;;;1999.90;999.90;;;10.50;99.90;;;;;;5038245;28;20026;-69
2023/11/02 01:13:17;;;;;;;1999.90;999.90;;;10.50;99.90;;;;;;5043321;28;20037;-80
2023/11/02 01:15:53;;;;;;;1999.90;999.90;;;10.50;99.90;;;;;;5040361;28;20358;-69
2023/11/02 01:18:19;;;;;;;1999.90;999.90;;;10.50;99.90;;;;;;5042190;28;20029;-70
2023/11/02 01:21:02;;;;;;;1999.90;999.90;;;10.60;99.90;;;;;;5047545;28;20363;-69
2023/11/02 01:23:29;;;;;;;1999.90;999.90;;;10.60;99.90;;;;;;5045622;28;20357;-70
2023/11/02 01:25:55;;;;;;;1999.90;999.90;;;10.70;99.90;;;;;;5051652;28;20032;-80
2023/11/02 01:28:23;;;;;;;1999.90;999.90;;;10.70;99.90;;;;;;5040152;28;20017;-70
2023/11/02 01:31:01;;;;;;;1999.90;999.90;;;10.70;99.90;;;;;;5053566;28;20028;-70
2023/11/02 01:33:36;;;;;;;1999.90;999.90;;;10.70;99.90;;;;;;5039591;28;20381;-71
2023/11/02 01:36:04;;;;;;;1999.90;999.90;;;10.80;99.90;;;;;;5049988;28;20026;-70
2023/11/02 01:38:32;;;;;;;1999.90;999.90;;;10.80;99.90;;;;;;5051065;28;20032;-69
2023/11/02 01:41:10;;;;;;;1999.90;999.90;;;10.80;99.90;;;;;;5042759;28;20180;-69
2023/11/02 01:43:48;;;;;;;1999.90;999.90;;;10.80;99.90;;;;;;5040900;28;20021;-70
2023/11/02 01:46:39;;;;;;;1999.90;999.90;;;10.80;99.90;;;;;;5042366;28;20025;-79
2023/11/02 01:49:21;;;;;;;1999.90;999.90;;;10.80;99.90;;;;;;5042817;28;20319;-70
2023/11/02 01:52:04;;;;;;;1999.90;999.90;;;10.90;99.90;;;;;;5037813;28;20340;-69
2023/11/02 01:54:58;;;;;;;1999.90;999.90;;;10.90;99.90;;;;;;5045004;28;20025;-70
2023/11/02 01:57:58;;;;;;;1999.90;999.90;;;10.90;99.90;;;;;;5033474;28;20417;-70
2023/11/02 02:00:32;;;;;;;1999.90;999.90;;;10.90;99.90;;;;;;5033206;28;20037;-70
2023/11/02 02:03:11;;;;;;;1999.90;999.90;;;10.90;99.90;;;;;;5033333;28;20443;-70
2023/11/02 02:05:48;;;;;;;1999.90;999.90;;;10.90;99.90;;;;;;5031533;28;20443;-70
2023/11/02 02:08:52;;;;;;;1999.90;999.90;;;11.00;99.90;;;;;;5036536;28;20083;-70
2023/11/02 02:11:41;;;;;;;1999.90;999.90;;;11.00;99.90;;;;;;5033435;28;20056;-70
2023/11/02 02:14:08;;;;;;;1999.90;999.90;;;11.00;99.90;;;;;;5032593;28;20312;-71
2023/11/02 02:16:42;;;;;;;1999.90;999.90;;;11.00;99.90;;;;;;5033140;28;20025;-70
2023/11/02 02:19:36;;;;;;;1999.90;999.90;;;11.00;99.90;;;;;;5048757;28;20029;-70
2023/11/02 02:22:34;;;;;;;1999.90;999.90;;;11.00;99.90;;;;;;5037312;28;20064;-70
2023/11/02 02:25:18;;;;;;;1999.90;999.90;;;11.00;99.90;;;;;;5050885;28;20033;-71
2023/11/02 02:27:46;;;;;;;1999.90;999.90;;;11.00;99.90;;;;;;5047769;28;20025;-71
2023/11/02 02:30:49;;;;;;;1999.90;999.90;;;11.00;99.90;;;;;;5052504;28;20032;-70
2023/11/02 02:33:43;;;;;;;1999.90;999.90;;;11.00;99.90;;;;;;5039780;28;20252;-79
2023/11/02 02:36:33;;;;;;;1999.90;999.90;;;11.00;99.90;;;;;;5049352;28;20060;-69
2023/11/02 02:39:08;;;;;;;1999.90;999.90;;;11.10;99.90;;;;;;5045054;28;20101;-71
2023/11/02 02:41:41;;;;;;;1999.90;999.90;;;11.10;99.90;;;;;;5054155;28;20324;-70
2023/11/02 02:44:09;;;;;;;1999.90;999.90;;;11.10;99.90;;;;;;5056418;28;20036;-71
2023/11/02 02:46:37;;;;;;;1999.90;999.90;;;11.10;99.90;;;;;;5051141;28;20312;-70
2023/11/02 02:49:04;;;;;;;1999.90;999.90;;;11.10;99.90;;;;;;5041852;28;20040;-71
2023/11/02 02:51:32;;;;;;;1999.90;999.90;;;11.10;99.90;;;;;;5050669;28;20382;-70
2023/11/02 02:54:07;;;;;;;1999.90;999.90;;;11.10;99.90;;;;;;5056413;28;20032;-70
2023/11/02 02:56:39;;;;;;;1999.90;999.90;;;11.10;99.90;;;;;;5054003;28;20106;-70
2023/11/02 02:59:09;;;;;;;1999.90;999.90;;;11.10;99.90;;;;;;5045785;28;20033;-70
2023/11/02 03:01:42;;;;;;;1999.90;999.90;;;11.10;99.90;;;;;;5054335;28;20043;-83
2023/11/02 03:04:13;;;;;;;1999.90;999.90;;;11.10;99.90;;;;;;5056128;28;20125;-71
2023/11/02 03:06:53;;;;;;;1999.90;999.90;;;11.20;99.90;;;;;;5040181;28;20115;-71
2023/11/02 03:09:26;;;;;;;1999.90;999.90;;;11.20;99.90;;;;;;5055071;28;20060;-70
2023/11/02 03:11:57;;;;;;;1999.90;999.90;;;11.20;99.90;;;;;;5055562;28;20083;-71
2023/11/02 03:14:24;;;;;;;1999.90;999.90;;;11.20;99.90;;;;;;5055981;28;20021;-70
2023/11/02 03:16:52;;;;;;;1999.90;999.90;;;11.30;99.90;;;;;;5053349;28;20423;-70
2023/11/02 03:19:47;;;;;;;1999.90;999.90;;;11.30;99.90;;;;;;5050086;28;20383;-70
2023/11/02 03:22:16;;;;;;;1999.90;999.90;;;11.30;99.90;;;;;;5041030;28;20033;-70
2023/11/02 03:25:06;;;;;;;1999.90;999.90;;;11.30;99.90;;;;;;5034787;28;20044;-80
2023/11/02 03:27:56;;;;;;;1999.90;999.90;;;11.30;99.90;;;;;;5049897;28;20028;-70
2023/11/02 03:30:40;;;;;;;1999.90;999.90;;;11.30;99.90;;;;;;5046687;28;20135;-71
2023/11/02 03:33:39;;;;;;;1999.90;999.90;;;11.40;99.90;;;;;;5050946;28;20025;-81
2023/11/02 03:36:43;;;;;;;1999.90;999.90;;;11.40;99.90;;;;;;5037483;28;20103;-71
2023/11/02 03:39:40;;;;;;;1999.90;999.90;;;11.30;99.90;;;;;;5035972;28;20359;-71
2023/11/02 03:42:17;;;;;;;1999.90;999.90;;;11.30;99.90;;;;;;5044895;28;20074;-71
2023/11/02 03:45:04;;;;;;;1999.90;999.90;;;11.20;99.90;;;;;;5040661;28;20017;-70
2023/11/02 03:48:16;;;;;;;1999.90;999.90;;;11.20;99.90;;;;;;5055299;28;20025;-71
2023/11/02 03:50:59;;;;;;;1999.90;999.90;;;11.20;99.90;;;;;;5033943;28;20085;-70
2023/11/02 03:53:42;;;;;;;1999.90;999.90;;;11.20;99.90;;;;;;5034997;28;20025;-81
2023/11/02 03:56:26;;;;;;;1999.90;999.90;;;11.10;99.90;;;;;;5034966;28;20090;-70
2023/11/02 03:59:23;;;;;;;1999.90;999.90;;;11.10;99.90;;;;;;5036218;28;20029;-71
2023/11/02 04:02:01;;;;;;;1999.90;999.90;;;11.10;99.90;;;;;;5046845;28;20340;-70
2023/11/02 04:04:38;;;;;;;1999.90;999.90;;;11.10;99.90;;;;;;5049442;28;20039;-69
2023/11/02 04:07:19;;;;;;;1999.90;999.90;;;11.20;99.90;;;;;;5051887;28;20433;-70
2023/11/02 04:10:04;;;;;;;1999.90;999.90;;;11.20;99.90;;;;;;5041767;28;20060;-71
2023/11/02 04:12:37;;;;;;;1999.90;999.90;;;11.30;99.90;;;;;;5042852;28;20021;-71
2023/11/02 04:15:05;;;;;;;1999.90;999.90;;;11.30;99.90;;;;;;5052364;28;20036;-74
2023/11/02 04:17:31;;;;;;;1999.90;999.90;;;11.30;99.90;;;;;;5046513;28;20104;-71
2023/11/02 04:19:58;;;;;;;1999.90;999.90;;;11.40;99.90;;;;;;5045092;28;20332;-71
2023/11/02 04:22:24;;;;;;;1999.90;999.90;;;11.40;99.90;;;;;;5052783;28;20435;-70
2023/11/02 04:24:50;;;;;;;1999.90;999.90;;;11.40;99.90;;;;;;5034664;28;20029;-72
2023/11/02 04:27:16;;;;;;;1999.90;999.90;;;11.40;99.90;;;;;;5033598;28;20025;-70
2023/11/02 04:29:41;;;;;;;1999.90;999.90;;;11.40;99.90;;;;;;5039714;28;20404;-80
2023/11/02 04:32:07;;;;;;;1999.90;999.90;;;11.50;99.90;;;;;;5052638;28;20095;-70
2023/11/02 04:34:33;;;;;;;1999.90;999.90;;;11.50;99.90;;;;;;5045478;28;20328;-70
2023/11/02 04:36:59;;;;;;;1999.90;999.90;;;11.50;99.90;;;;;;5041457;28;20025;-70
2023/11/02 04:39:25;;;;;;;1999.90;999.90;;;11.50;99.90;;;;;;5044484;28;20029;-71
2023/11/02 04:41:51;;;;;;;1999.90;999.90;;;11.50;99.90;;;;;;5039876;28;20021;-71
2023/11/02 04:44:17;;;;;;;1999.90;999.90;;;11.50;99.90;;;;;;5049291;28;20025;-71
2023/11/02 04:46:43;;;;;;;1999.90;999.90;;;11.50;99.90;;;;;;5048048;28;20045;-82
2023/11/02 04:49:09;;;;;;;1999.90;999.90;;;11.50;99.90;;;;;;5040199;28;20427;-70
2023/11/02 04:51:35;;;;;;;1999.90;999.90;;;11.60;99.90;;;;;;5039545;28;20053;-71
2023/11/02 04:54:01;;;;;;;1999.90;999.90;;;11.60;99.90;;;;;;5038935;28;20036;-71
2023/11/02 04:56:27;;;;;;;1999.90;999.90;;;11.60;99.90;;;;;;5036325;28;20042;-71
2023/11/02 04:58:53;;;;;;;1999.90;999.90;;;11.60;99.90;;;;;;5044319;28;20055;-70
2023/11/02 05:01:19;;;;;;;1999.90;999.90;;;11.60;99.90;;;;;;5045386;28;20087;-70
2023/11/02 05:03:44;;;;;;;1999.90;999.90;;;11.60;99.90;;;;;;5041134;28;20041;-70
2023/11/02 05:06:10;;;;;;;1999.90;999.90;;;11.60;99.90;;;;;;5046112;28;20043;-71
2023/11/02 05:08:36;;;;;;;1999.90;999.90;;;11.60;99.90;;;;;;5044528;28;20136;-70
2023/11/02 05:11:02;;;;;;;1999.90;999.90;;;11.50;99.90;;;;;;5051955;28;20059;-71
2023/11/02 05:13:28;;;;;;;1999.90;999.90;;;11.50;99.90;;;;;;5045527;28;20328;-77
2023/11/02 05:15:58;;;;;;;1999.90;999.90;;;11.50;99.90;;;;;;5044389;28;20030;-69
2023/11/02 05:18:24;;;;;;;1999.90;999.90;;;11.50;99.90;;;;;;5039268;28;20028;-71
2023/11/02 05:20:57;;;;;;;1999.90;999.90;;;11.50;99.90;;;;;;5044860;28;20434;-72
2023/11/02 05:23:23;;;;;;;1999.90;999.90;;;11.60;99.90;;;;;;5042040;28;20021;-70
2023/11/02 05:25:49;;;;;;;1999.90;999.90;;;11.60;99.90;;;;;;5043483;28;20043;-70
2023/11/02 05:28:15;;;;;;;1999.90;999.90;;;11.60;99.90;;;;;;5049086;28;20025;-71
2023/11/02 05:30:41;;;;;;;1999.90;999.90;;;11.60;99.90;;;;;;5040776;28;20067;-70
2023/11/02 05:33:07;;;;;;;1999.90;999.90;;;11.60;99.90;;;;;;5035732;28;20029;-71
2023/11/02 05:35:33;;;;;;;1999.90;999.90;;;11.60;99.90;;;;;;5047549;28;20039;-71
2023/11/02 05:37:59;;;;;;;1999.90;999.90;;;11.60;99.90;;;;;;5048326;28;20610;-82
2023/11/02 05:40:25;;;;;;;1999.90;999.90;;;11.60;99.90;;;;;;5047266;28;20028;-71
2023/11/02 05:42:50;;;;;;;1999.90;999.90;;;11.60;99.90;;;;;;5046914;28;20020;-72
2023/11/02 05:45:16;;;;;;;1999.90;999.90;;;11.50;99.90;;;;;;5045103;28;20273;-71
2023/11/02 05:47:42;;;;;;;1999.90;999.90;;;11.50;99.90;;;;;;5033486;28;20025;-80
2023/11/02 05:50:09;;;;;;;1999.90;999.90;;;11.50;99.90;;;;;;5040178;28;20486;-72
2023/11/02 05:52:35;;;;;;;1999.90;999.90;;;11.40;99.90;;;;;;5045422;28;20013;-71
2023/11/02 05:55:00;;;;;;;1999.90;999.90;;;11.20;99.90;;;;;;5041253;28;20481;-71
2023/11/02 05:57:26;;;;;;;1999.90;999.90;;;11.10;99.90;;;;;;5046995;28;20037;-71
2023/11/02 05:59:52;;;;;;;1999.90;999.90;;;11.00;99.90;;;;;;5045410;28;20026;-70
2023/11/02 06:02:18;;;;;;;1999.90;999.90;;;10.90;99.90;;;;;;5043735;28;20021;-72
2023/11/02 06:04:44;;;;;;;1999.90;999.90;;;10.80;99.90;;;;;;5038437;28;20074;-77
2023/11/02 06:07:10;;;;;;;1999.90;999.90;;;10.80;99.90;;;;;;5033325;28;20067;-71
2023/11/02 06:09:36;;;;;;;1999.90;999.90;;;10.80;99.90;;;;;;5043059;28;20024;-72
2023/11/02 06:12:01;;;;;;;1999.90;999.90;;;10.80;99.90;;;;;;5046124;28;20032;-70
2023/11/02 06:14:27;;;;;;;1999.90;999.90;;;10.80;99.90;;;;;;5035746;28;20017;-71
2023/11/02 06:16:53;;;;;;;1999.90;999.90;;;10.80;99.90;;;;;;5038989;28;20030;-71
2023/11/02 06:19:19;;;;;;;1999.90;999.90;;;10.80;99.90;;;;;;5054768;28;20021;-72
2023/11/02 06:21:45;;;;;;;1999.90;999.90;;;10.80;99.90;;;;;;5056858;28;20029;-70
2023/11/02 06:24:10;;;;;;;1999.90;999.90;;;10.80;99.90;;;;;;5053389;28;20036;-70
2023/11/02 06:26:36;;;;;;;1999.90;999.90;;;10.80;99.90;;;;;;5044865;28;20033;-71
2023/11/02 06:29:02;;;;;;;1999.90;999.90;;;10.70;99.90;;;;;;5056687;28;20071;-71
2023/11/02 06:31:28;;;;;;;1999.90;999.90;;;10.80;99.90;;;;;;5042757;28;20021;-71
2023/11/02 06:33:54;;;;;;;1999.90;999.90;;;10.80;99.90;;;;;;5056846;28;20759;-71
2023/11/02 06:36:20;;;;;;;;;;;10.80;99.90;;;;;;5052481;28;20013;-71
2023/11/02 06:38:46;;;;;;;1999.90;999.90;;;10.90;99.90;;;;;;5046798;28;19927;-71
2023/11/02 06:41:11;;;;;;;1999.90;999.90;;;10.90;99.90;;;;;;5055959;28;20078;-72
2023/11/02 06:43:41;;;;;;;1999.90;999.90;;;10.90;99.90;;;;;;5054007;28;20025;-70
2023/11/02 06:46:07;;;;;;;1999.90;999.90;;;10.90;99.90;;;;;;5051107;28;20033;-71
2023/11/02 06:48:33;;;;;;;1999.90;999.90;;;10.90;99.90;;;;;;5036665;28;20111;-83
2023/11/02 06:50:59;;;;;;;1999.90;999.90;;;10.80;99.90;;;;;;5036262;28;20129;-72
2023/11/02 06:53:25;;;;;;;1999.90;999.90;;;10.80;99.90;;;;;;5040167;28;20039;-71
2023/11/02 06:55:51;;;;;;;1999.90;999.90;;;10.80;99.90;;;;;;5044425;28;20029;-72
2023/11/02 06:58:17;;;;;;;1999.90;999.90;;;10.80;99.90;;;;;;5045403;28;20084;-73
2023/11/02 07:00:44;;;;;;;1999.90;999.90;;;10.80;99.90;;;;;;5044133;28;20309;-71
2023/11/02 07:03:11;;;;;;;1999.90;999.90;;;10.80;99.90;;;;;;5035801;28;20371;-71
2023/11/02 07:05:36;;;;;;;;;;;10.90;99.90;;;;;;5035518;28;20099;-78
2023/11/02 07:08:02;;;;;;;1999.90;999.90;;;10.90;99.90;;;;;;5040974;28;19912;-71
2023/11/02 07:10:28;;;;;;;1999.90;999.90;;;10.90;99.90;;;;;;5036948;28;20417;-72
2023/11/02 07:12:54;;;;;;;1999.90;999.90;;;10.90;99.90;;;;;;5036084;28;20075;-71
2023/11/02 07:15:22;;;;;;;1999.90;999.90;;;11.00;99.90;;;;;;5034461;28;20080;-72
2023/11/02 07:17:48;;;;;;;1999.90;999.90;;;11.00;99.90;;;;;;5041290;28;20358;-71
2023/11/02 07:20:14;;;;;;;1999.90;999.90;;;11.10;99.90;;;;;;5054910;28;20033;-71
2023/11/02 07:22:39;;;;;;;1999.90;999.90;;;11.10;99.90;;;;;;5054826;28;20040;-71
2023/11/02 07:25:06;;;;;;;1999.90;999.90;;;11.20;99.90;;;;;;5055645;28;20716;-78
2023/11/02 07:27:32;;;;;;;1999.90;999.90;;;11.20;99.90;;;;;;5039497;28;20021;-80
2023/11/02 07:29:59;;;;;;;1999.90;999.90;;;11.30;99.90;;;;;;5043517;28;20025;-71
2023/11/02 07:32:25;;;;;;;1999.90;999.90;;;11.30;99.90;;;;;;5043277;28;20029;-83
2023/11/02 07:34:51;;;;;;;1999.90;999.90;;;11.30;99.90;;;;;;5047283;28;20039;-71
2023/11/02 07:37:17;;;;;;;1999.90;999.90;;;11.40;99.90;;;;;;5049128;28;20108;-72
2023/11/02 07:39:43;;;;;;;1999.90;999.90;;;11.40;99.90;;;;;;5052035;28;20037;-71
2023/11/02 07:42:09;;;;;;;1999.90;999.90;;;11.40;99.90;;;;;;5047564;28;20033;-72
2023/11/02 07:44:35;;;;;;;1999.90;999.90;;;11.50;99.90;;;;;;5055573;28;20040;-71
2023/11/02 07:47:01;;;;;;;1999.90;999.90;;;11.50;99.90;;;;;;5046446;28;20021;-71
2023/11/02 07:49:27;;;;;;;1999.90;999.90;;;11.60;99.90;;;;;;5048060;28;20115;-76
2023/11/02 07:51:53;;;;;;;1999.90;999.90;;;11.60;99.90;;;;;;5049783;28;20108;-71
2023/11/02 07:54:19;;;;;;;1999.90;999.90;;;11.70;99.90;;;;;;5054321;28;20041;-71
2023/11/02 07:56:45;;;;;;;1999.90;999.90;;;11.70;99.90;;;;;;5047594;28;20463;-71
2023/11/02 07:59:12;;;;;;;1999.90;999.90;;;11.80;99.90;;;;;;5048873;28;20027;-71
2023/11/02 08:01:38;;;;;;;1999.90;999.90;;;11.80;99.90;;;;;;5053584;28;20029;-71
2023/11/02 08:04:05;;;;;;;1999.90;999.90;;;11.90;99.90;;;;;;5050308;28;20454;-71
2023/11/02 08:06:32;;;;;;;1999.90;999.90;;;12.00;99.90;;;;;;5035405;28;20356;-82
2023/11/02 08:08:58;;;;;;;1999.90;999.90;;;12.00;99.90;;;;;;5046422;28;20078;-71
2023/11/02 08:11:24;;;;;;;1999.90;999.90;;;12.10;99.90;;;;;;5040085;28;20034;-72
2023/11/02 08:13:51;;;;;;;1999.90;999.90;;;12.10;99.90;;;;;;5045897;28;20021;-71
2023/11/02 08:16:23;;;;;;;1999.90;999.90;;;12.00;99.90;;;;;;5042245;28;20032;-71
2023/11/02 08:18:48;;;;;;;1999.90;999.90;;;11.90;99.90;;;;;;5049821;28;20048;-72
2023/11/02 08:21:14;;;;;;;1999.90;999.90;;;11.90;99.90;;;;;;5052350;28;20447;-71
2023/11/02 08:23:40;;;;;;;1999.90;999.90;;;11.80;99.90;;;;;;5052543;28;20087;-71
2023/11/02 08:26:06;;;;;;;1999.90;999.90;;;11.80;99.90;;;;;;5037415;28;20048;-72
2023/11/02 08:28:32;;;;;;;1999.90;999.90;;;11.80;99.90;;;;;;5051513;28;20103;-71
2023/11/02 08:30:58;;;;;;;1999.90;999.90;;;11.80;99.90;;;;;;5046108;28;20013;-71
2023/11/02 08:33:24;;;;;;;1999.90;999.90;;;11.80;99.90;;;;;;5050925;28;20021;-71
2023/11/02 08:35:51;;;;;;;1999.90;999.90;;;11.80;99.90;;;;;;5051248;28;20303;-71
2023/11/02 08:38:17;;;;;;;1999.90;999.90;;;11.80;99.90;;;;;;5045794;28;20021;-70
2023/11/02 08:40:43;;;;;;;1999.90;999.90;;;11.80;99.90;;;;;;5042727;28;20025;-70
2023/11/02 08:43:08;;;;;;;1999.90;999.90;;;11.80;99.90;;;;;;5044896;28;20036;-77
2023/11/02 08:45:34;;;;;;;1999.90;999.90;;;11.80;99.90;;;;;;5046148;28;20052;-70
2023/11/02 08:48:00;;;;;;;1999.90;999.90;;;11.80;99.90;;;;;;5048837;28;20033;-70
2023/11/02 08:50:27;;;;;;;1999.90;999.90;;;11.80;99.90;;;;;;5039201;28;20051;-79
2023/11/02 08:52:53;;;;;;;1999.90;999.90;;;11.80;99.90;;;;;;5042608;28;20030;-71
2023/11/02 08:55:19;;;;;;;1999.90;999.90;;;11.90;99.90;;;;;;5045115;28;20035;-71
2023/11/02 08:57:45;;;;;;;1999.90;999.90;;;11.90;99.90;;;;;;5045079;28;20110;-72
2023/11/02 09:00:11;;;;;;;1999.90;999.90;;;11.90;99.90;;;;;;5038253;28;20356;-71
2023/11/02 09:02:37;;;;;;;1999.90;999.90;;;11.90;99.90;;;;;;5052007;28;20086;-71
2023/11/02 09:05:03;;;;;;;1999.90;999.90;;;12.00;99.90;;;;;;5046218;28;20281;-71
2023/11/02 09:07:30;;;;;;;1999.90;999.90;;;12.10;99.90;;;;;;5036111;28;20029;-79
2023/11/02 09:09:57;;;;;;;1999.90;999.90;;;12.20;99.90;;;;;;5045453;28;20045;-71
2023/11/02 09:12:22;;;;;;;1999.90;999.90;;;12.40;99.90;;;;;;5035992;28;20135;-70
2023/11/02 09:14:48;;;;;;;1999.90;999.90;;;12.50;99.90;;;;;;5039983;28;20107;-70
2023/11/02 09:17:14;;;;;;;1999.90;999.90;;;12.60;99.90;;;;;;5053194;28;20447;-70
2023/11/02 09:19:40;;;;;;;1999.90;999.90;;;12.70;99.90;;;;;;5032470;28;20025;-81
2023/11/02 09:22:06;;;;;;;1999.90;999.90;;;12.70;99.90;;;;;;5051801;28;20024;-70
2023/11/02 09:24:32;;;;;;;1999.90;999.90;;;12.80;99.90;;;;;;5047406;28;20476;-78
2023/11/02 09:26:58;;;;;;;1999.90;999.90;;;12.90;99.90;;;;;;5034559;28;20040;-71
2023/11/02 09:29:24;;;;;;;1999.90;999.90;;;12.90;99.90;;;;;;5058468;28;20056;-71
2023/11/02 09:31:50;;;;;;;1999.90;999.90;;;13.00;99.90;;;;;;5060648;28;20025;-71
2023/11/02 09:34:16;;;;;;;1999.90;999.90;;;13.00;99.90;;;;;;5058604;28;20051;-78
2023/11/02 09:36:43;;;;;;;1999.90;999.90;;;13.10;99.90;;;;;;5048030;28;20039;-71
2023/11/02 09:39:10;;;;;;;1999.90;999.90;;;13.10;99.90;;;;;;5044206;28;20097;-71
2023/11/02 09:41:37;;;;;;;1999.90;999.90;;;13.00;99.90;;;;;;5043679;28;20109;-71
2023/11/02 09:44:05;;;;;;;;;;;13.00;99.90;;;;;;5047355;28;20029;-71
2023/11/02 09:46:34;;;;;;;1999.90;999.90;;;12.90;99.90;;;;;;5047034;28;19932;-71
2023/11/02 09:49:00;;;;;;;1999.90;999.90;;;12.80;99.90;;;;;;5044317;28;20033;-71
2023/11/02 09:51:28;;;;;;;1999.90;999.90;;;12.80;99.90;;;;;;5039479;28;20148;-71
2023/11/02 09:53:54;;;;;;;1999.90;999.90;;;12.80;99.90;;;;;;5055879;28;20107;-75
2023/11/02 09:56:22;;;;;;;1999.90;999.90;;;12.70;99.90;;;;;;5048367;28;20021;-78
2023/11/02 09:58:50;;;;;;;1999.90;999.90;;;12.60;99.90;;;;;;5044311;28;20033;-71
2023/11/02 10:01:16;;;;;;;1999.90;999.90;;;12.60;99.90;;;;;;5055846;28;20080;-70
2023/11/02 10:03:42;;;;;;;;;;;12.50;99.90;;;;;;5044978;28;20428;-71
2023/11/02 10:06:09;;;;;;;1999.90;999.90;;;12.50;99.90;;;;;;5052059;28;19919;-71
2023/11/02 10:08:35;;;;;;;1999.90;999.90;;;12.50;99.90;;;;;;5042351;28;20033;-71
2023/11/02 10:11:11;;;;;;;1999.90;999.90;;;12.60;99.90;;;;;;5044556;28;20021;-71
2023/11/02 10:13:36;;;;;;;1999.90;999.90;;;12.70;99.90;;;;;;5051727;28;20024;-70
2023/11/02 10:16:02;;;;;;;1999.90;999.90;;;12.80;99.90;;;;;;5056880;28;20032;-70
2023/11/02 10:18:28;;;;;;;1999.90;999.90;;;12.90;99.90;;;;;;5065986;28;20463;-77
2023/11/02 10:20:54;;;;;;;1999.90;999.90;;;13.00;99.90;;;;;;5059163;28;20052;-76
2023/11/02 10:23:20;;;;;;;1999.90;999.90;;;13.20;99.90;;;;;;5048246;28;20254;-71
2023/11/02 10:25:46;;;;;;;1999.90;999.90;;;13.30;99.90;;;;;;5040942;28;20112;-72
2023/11/02 10:28:15;;;;;;;1999.90;999.90;;;13.40;99.90;;;;;;5036668;28;20021;-72
2023/11/02 10:30:41;;;;;;;1999.90;999.90;;;13.40;99.90;;;;;;5044502;28;20113;-71
2023/11/02 10:33:08;;;;;;;1999.90;999.90;;;13.60;99.90;;;;;;5042746;28;20029;-74
2023/11/02 10:35:37;;;;;;;;;;;13.70;99.90;;;;;;5037233;28;20037;-72
2023/11/02 10:38:08;;;;;;;1999.90;999.90;;;13.90;99.90;;;;;;5036252;28;19905;-70
2023/11/02 10:40:46;;;;;;;1999.90;999.90;;;13.90;99.90;;;;;;5043373;28;20056;-71
2023/11/02 10:43:19;;;;;;;1999.90;999.90;;;13.90;99.90;;;;;;5036622;28;20087;-70
2023/11/02 10:45:51;;;;;;;1999.90;999.90;;;13.80;99.90;;;;;;5041232;28;20025;-71
2023/11/02 10:48:18;;;;;;;1999.90;999.90;;;13.80;99.90;;;;;;5039557;28;20021;-71
2023/11/02 10:50:46;;;;;;;1999.90;999.90;;;13.90;99.90;;;;;;5041784;28;20060;-72
2023/11/02 10:53:24;;;;;;;1999.90;999.90;;;13.90;99.90;;;;;;5045882;28;20116;-72
2023/11/02 10:56:00;;;;;;;1999.90;999.90;;;13.90;99.90;;;;;;5051354;28;20110;-70
2023/11/02 10:58:27;;;;;;;1999.90;999.90;;;13.90;99.90;;;;;;5043566;28;20022;-70
2023/11/02 11:00:54;;;;;;;1999.90;999.90;;;14.00;99.90;;;;;;5038030;28;20031;-83
2023/11/02 11:03:21;;;;;;;1999.90;999.90;;;13.90;99.90;;;;;;5037681;28;20018;-70
2023/11/02 11:05:49;;;;;;;1999.90;999.90;;;13.90;99.90;;;;;;5036325;28;20037;-74
2023/11/02 11:08:15;;;;;;;1999.90;999.90;;;13.90;99.90;;;;;;5040214;28;20826;-70
2023/11/02 11:10:43;;;;;;;1999.90;999.90;;;13.80;99.90;;;;;;5044643;28;20018;-70
2023/11/02 11:13:10;;;;;;;1999.90;999.90;;;13.70;99.90;;;;;;5048626;28;20039;-70
2023/11/02 11:15:36;;;;;;;1999.90;999.90;;;13.60;99.90;;;;;;5040672;28;20017;-70
2023/11/02 11:18:05;;;;;;;1999.90;999.90;;;13.50;99.90;;;;;;5040967;28;20328;-71
2023/11/02 11:20:32;;;;;;;1999.90;999.90;;;13.50;99.90;;;;;;5051136;28;20018;-70
2023/11/02 11:22:58;;;;;;;;;;;13.40;99.90;;;;;;5043730;28;20056;-72
2023/11/02 11:25:24;;;;;;;1999.90;999.90;;;13.40;99.90;;;;;;5050862;28;19920;-81
2023/11/02 11:27:49;;;;;;;1999.90;999.90;;;13.30;99.90;;;;;;5044513;28;20061;-71
2023/11/02 11:30:21;;;;;;;1999.90;999.90;;;13.20;99.90;;;;;;5046704;28;20397;-72
2023/11/02 11:32:49;;;;;;;1999.90;999.90;;;13.10;99.90;;;;;;5043393;28;20486;-75
2023/11/02 11:35:17;;;;;;;1999.90;999.90;;;12.90;99.90;;;;;;5040740;28;20308;-70
2023/11/02 11:37:57;;;;;;;1999.90;999.90;;;12.70;99.90;;;;;;5051214;28;20483;-70
2023/11/02 11:40:32;;;;;;;1999.90;999.90;;;12.60;99.90;;;;;;5044978;28;20032;-79
2023/11/02 11:43:06;;;;;;;1999.90;999.90;;;12.40;99.90;;;;;;5049030;28;20090;-71
2023/11/02 11:45:55;;;;;;;1999.90;999.90;;;12.20;99.90;;;;;;5044313;28;20064;-70
2023/11/02 11:48:42;;;;;;;1999.90;999.90;;;12.00;99.90;;;;;;5046517;28;20126;-71
2023/11/02 11:51:40;;;;;;;1999.90;999.90;;;12.00;99.90;;;;;;5057865;28;20033;-71
2023/11/02 11:54:14;;;;;;;1999.90;999.90;;;11.90;99.90;;;;;;5047131;28;20022;-70
2023/11/02 11:56:41;;;;;;;1999.90;999.90;;;11.90;99.90;;;;;;5050959;28;20029;-71
2023/11/02 11:59:06;;;;;;;;;;;11.80;99.90;;;;;;5045569;28;20056;-71
2023/11/02 12:01:32;;;;;;;1999.90;999.90;;;11.70;99.90;;;;;;5037474;28;20320;-70
2023/11/02 12:03:58;;;;;;;1999.90;999.90;;;11.80;99.90;;;;;;5037352;28;20033;-71
2023/11/02 12:06:39;;;;;;;1999.90;999.90;;;11.70;99.90;;;;;;5048344;28;20045;-71
2023/11/02 12:09:09;;;;;;;1999.90;999.90;;;11.80;99.90;;;;;;5040129;28;20060;-70
2023/11/02 12:11:35;;;;;;;1999.90;999.90;;;11.70;99.90;;;;;;5043444;28;20066;-71
2023/11/02 12:14:12;;;;;;;1999.90;999.90;;;11.70;99.90;;;;;;5056551;28;20030;-73
2023/11/02 12:16:38;;;;;;;1999.90;999.90;;;11.70;99.90;;;;;;5049775;28;20124;-72